sensor_id;sensor_type;location;lat;lon;timestamp;pressure;altitude;pressure_sealevel;temperature
24714;BMP280;12820;51.580;5.010;2023-10-08T00:01:07;102241.25;;;19.66
24714;BMP280;12820;51.580;5.010;2023-10-08T00:06:09;102239.72;;;19.60
24714;BMP280;12820;51.580;5.010;2023-10-08T00:11:16;102233.94;;;19.54
24714;BMP280;12820;51.580;5.010;2023-10-08T00:16:18;102243.47;;;19.48
24714;BMP280;12820;51.580;5.010;2023-10-08T00:21:23;102255.56;;;19.40
24714;BMP280;12820;51.580;5.010;2023-10-08T00:26:30;102247.34;;;19.31
24714;BMP280;12820;51.580;5.010;2023-10-08T00:31:33;102246.69;;;19.24
24714;BMP280;12820;51.580;5.010;2023-10-08T00:36:44;102250.31;;;19.16
24714;BMP280;12820;51.580;5.010;2023-10-08T00:41:49;102261.56;;;19.09
24714;BMP280;12820;51.580;5.010;2023-10-08T00:46:52;102242.25;;;19.01
24714;BMP280;12820;51.580;5.010;2023-10-08T00:51:57;102268.72;;;18.96
24714;BMP280;12820;51.580;5.010;2023-10-08T00:57:06;102248.59;;;18.86
24714;BMP280;12820;51.580;5.010;2023-10-08T01:02:09;102237.72;;;18.79
24714;BMP280;12820;51.580;5.010;2023-10-08T01:07:17;102243.91;;;18.71
24714;BMP280;12820;51.580;5.010;2023-10-08T01:12:22;102231.28;;;18.65
24714;BMP280;12820;51.580;5.010;2023-10-08T01:17:26;102222.03;;;18.61
24714;BMP280;12820;51.580;5.010;2023-10-08T01:22:29;102224.69;;;18.57
24714;BMP280;12820;51.580;5.010;2023-10-08T01:27:31;102221.41;;;18.53
24714;BMP280;12820;51.580;5.010;2023-10-08T01:32:37;102212.91;;;18.53
24714;BMP280;12820;51.580;5.010;2023-10-08T01:37:39;102221.44;;;18.50
24714;BMP280;12820;51.580;5.010;2023-10-08T01:42:42;102231.72;;;18.48
24714;BMP280;12820;51.580;5.010;2023-10-08T01:47:45;102229.19;;;18.48
24714;BMP280;12820;51.580;5.010;2023-10-08T01:52:50;102251.28;;;18.46
24714;BMP280;12820;51.580;5.010;2023-10-08T01:57:53;102248.72;;;18.47
24714;BMP280;12820;51.580;5.010;2023-10-08T02:02:55;102259.75;;;18.48
24714;BMP280;12820;51.580;5.010;2023-10-08T02:08:00;102263.97;;;18.49
24714;BMP280;12820;51.580;5.010;2023-10-08T02:13:06;102260.59;;;18.48
24714;BMP280;12820;51.580;5.010;2023-10-08T02:18:08;102263.97;;;18.49
24714;BMP280;12820;51.580;5.010;2023-10-08T02:23:11;102248.69;;;18.49
24714;BMP280;12820;51.580;5.010;2023-10-08T02:28:14;102264.84;;;18.48
24714;BMP280;12820;51.580;5.010;2023-10-08T02:33:17;102265.66;;;18.48
24714;BMP280;12820;51.580;5.010;2023-10-08T02:38:20;102275.84;;;18.50
24714;BMP280;12820;51.580;5.010;2023-10-08T02:43:23;102280.09;;;18.49
24714;BMP280;12820;51.580;5.010;2023-10-08T02:48:26;102283.47;;;18.50
24714;BMP280;12820;51.580;5.010;2023-10-08T02:53:29;102284.34;;;18.49
24714;BMP280;12820;51.580;5.010;2023-10-08T02:58:31;102272.44;;;18.49
24714;BMP280;12820;51.580;5.010;2023-10-08T03:03:41;102276.69;;;18.49
24714;BMP280;12820;51.580;5.010;2023-10-08T03:08:45;102276.69;;;18.49
24714;BMP280;12820;51.580;5.010;2023-10-08T03:13:50;102288.56;;;18.50
24714;BMP280;12820;51.580;5.010;2023-10-08T03:18:55;102291.97;;;18.49
24714;BMP280;12820;51.580;5.010;2023-10-08T03:23:59;102294.53;;;18.49
24714;BMP280;12820;51.580;5.010;2023-10-08T03:29:03;102294.53;;;18.49
24714;BMP280;12820;51.580;5.010;2023-10-08T03:34:19;102287.75;;;18.48
24714;BMP280;12820;51.580;5.010;2023-10-08T03:39:22;102293.72;;;18.47
24714;BMP280;12820;51.580;5.010;2023-10-08T03:44:26;102299.66;;;18.46
24714;BMP280;12820;51.580;5.010;2023-10-08T03:49:31;102285.28;;;18.45
24714;BMP280;12820;51.580;5.010;2023-10-08T03:54:34;102292.94;;;18.43
24714;BMP280;12820;51.580;5.010;2023-10-08T03:59:37;102282.00;;;18.40
24714;BMP280;12820;51.580;5.010;2023-10-08T04:04:44;102305.78;;;18.39
24714;BMP280;12820;51.580;5.010;2023-10-08T04:10:00;102297.34;;;18.37
24714;BMP280;12820;51.580;5.010;2023-10-08T04:15:13;102305.84;;;18.36
24714;BMP280;12820;51.580;5.010;2023-10-08T04:20:19;102329.69;;;18.32
24714;BMP280;12820;51.580;5.010;2023-10-08T04:25:36;102331.47;;;18.30
24714;BMP280;12820;51.580;5.010;2023-10-08T04:30:38;102329.81;;;18.26
24714;BMP280;12820;51.580;5.010;2023-10-08T04:35:44;102326.50;;;18.23
24714;BMP280;12820;51.580;5.010;2023-10-08T04:41:05;102326.63;;;18.18
24714;BMP280;12820;51.580;5.010;2023-10-08T04:46:11;102352.16;;;18.15
24714;BMP280;12820;51.580;5.010;2023-10-08T04:51:42;102343.69;;;18.14
24714;BMP280;12820;51.580;5.010;2023-10-08T04:56:51;102346.34;;;18.08
24714;BMP280;12820;51.580;5.010;2023-10-08T05:01:55;102352.38;;;18.04
24714;BMP280;12820;51.580;5.010;2023-10-08T05:07:15;102355.03;;;17.99
24714;BMP280;12820;51.580;5.010;2023-10-08T05:12:23;102339.84;;;17.97
24714;BMP280;12820;51.580;5.010;2023-10-08T05:17:34;102333.91;;;17.96
24714;BMP280;12820;51.580;5.010;2023-10-08T05:22:48;102352.66;;;17.92
24714;BMP280;12820;51.580;5.010;2023-10-08T05:27:58;102378.13;;;17.89
24714;BMP280;12820;51.580;5.010;2023-10-08T05:33:00;102395.09;;;17.89
24714;BMP280;12820;51.580;5.010;2023-10-08T05:38:06;102386.63;;;17.88
24714;BMP280;12820;51.580;5.010;2023-10-08T05:43:35;102373.97;;;17.85
24714;BMP280;12820;51.580;5.010;2023-10-08T05:48:43;102381.69;;;17.82
24714;BMP280;12820;51.580;5.010;2023-10-08T05:53:53;102395.25;;;17.80
24714;BMP280;12820;51.580;5.010;2023-10-08T05:58:58;102371.59;;;17.77
24714;BMP280;12820;51.580;5.010;2023-10-08T06:04:16;102352.09;;;17.76
24714;BMP280;12820;51.580;5.010;2023-10-08T06:09:45;102342.84;;;17.72
24714;BMP280;12820;51.580;5.010;2023-10-08T06:15:04;102349.66;;;17.70
24714;BMP280;12820;51.580;5.010;2023-10-08T06:20:11;102364.13;;;17.68
24714;BMP280;12820;51.580;5.010;2023-10-08T06:25:18;102376.00;;;17.67
24714;BMP280;12820;51.580;5.010;2023-10-08T06:30:25;102372.56;;;17.70
24714;BMP280;12820;51.580;5.010;2023-10-08T06:35:31;102371.66;;;17.74
24714;BMP280;12820;51.580;5.010;2023-10-08T06:40:35;102387.72;;;17.76
24714;BMP280;12820;51.580;5.010;2023-10-08T06:45:42;102388.53;;;17.78
24714;BMP280;12820;51.580;5.010;2023-10-08T06:50:49;102396.09;;;17.80
24714;BMP280;12820;51.580;5.010;2023-10-08T06:55:51;102405.38;;;17.84
24714;BMP280;12820;51.580;5.010;2023-10-08T07:01:01;102403.56;;;17.89
24714;BMP280;12820;51.580;5.010;2023-10-08T07:06:11;102408.56;;;17.95
24714;BMP280;12820;51.580;5.010;2023-10-08T07:11:19;102408.44;;;18.01
24714;BMP280;12820;51.580;5.010;2023-10-08T07:16:22;102423.59;;;18.07
24714;BMP280;12820;51.580;5.010;2023-10-08T07:21:25;102414.97;;;18.14
24714;BMP280;12820;51.580;5.010;2023-10-08T07:26:48;102418.16;;;18.23
24714;BMP280;12820;51.580;5.010;2023-10-08T07:31:51;102421.44;;;18.29
24714;BMP280;12820;51.580;5.010;2023-10-08T07:36:56;102428.00;;;18.39
24714;BMP280;12820;51.580;5.010;2023-10-08T07:42:05;102426.88;;;18.51
24714;BMP280;12820;51.580;5.010;2023-10-08T07:47:08;102433.34;;;18.66
24714;BMP280;12820;51.580;5.010;2023-10-08T07:52:16;102423.59;;;18.85
24714;BMP280;12820;51.580;5.010;2023-10-08T07:57:19;102428.97;;;19.09
24714;BMP280;12820;51.580;5.010;2023-10-08T08:02:28;102444.50;;;19.33
24714;BMP280;12820;51.580;5.010;2023-10-08T08:07:30;102458.50;;;19.53
24714;BMP280;12820;51.580;5.010;2023-10-08T08:12:32;102463.94;;;19.72
24714;BMP280;12820;51.580;5.010;2023-10-08T08:17:35;102469.41;;;19.89
24714;BMP280;12820;51.580;5.010;2023-10-08T08:22:37;102487.56;;;20.10
24714;BMP280;12820;51.580;5.010;2023-10-08T08:27:43;102478.53;;;20.28
24714;BMP280;12820;51.580;5.010;2023-10-08T08:32:49;102495.88;;;20.47
24714;BMP280;12820;51.580;5.010;2023-10-08T08:37:54;102499.72;;;20.61
24714;BMP280;12820;51.580;5.010;2023-10-08T08:42:57;102499.34;;;20.73
24714;BMP280;12820;51.580;5.010;2023-10-08T08:48:01;102499.00;;;20.84
24714;BMP280;12820;51.580;5.010;2023-10-08T08:53:03;102509.63;;;21.00
24714;BMP280;12820;51.580;5.010;2023-10-08T08:58:06;102506.34;;;21.23
24714;BMP280;12820;51.580;5.010;2023-10-08T09:03:13;102500.16;;;21.55
24714;BMP280;12820;51.580;5.010;2023-10-08T09:08:15;102503.47;;;21.82
24714;BMP280;12820;51.580;5.010;2023-10-08T09:13:21;102498.09;;;22.15
24714;BMP280;12820;51.580;5.010;2023-10-08T09:18:24;102499.22;;;22.53
24714;BMP280;12820;51.580;5.010;2023-10-08T09:23:29;102493.09;;;22.79
24714;BMP280;12820;51.580;5.010;2023-10-08T09:28:32;102511.31;;;22.94
24714;BMP280;12820;51.580;5.010;2023-10-08T09:33:36;102517.53;;;23.10
24714;BMP280;12820;51.580;5.010;2023-10-08T09:38:39;102517.03;;;23.21
24714;BMP280;12820;51.580;5.010;2023-10-08T09:43:41;102509.44;;;23.41
24714;BMP280;12820;51.580;5.010;2023-10-08T09:48:51;102493.91;;;23.63
24714;BMP280;12820;51.580;5.010;2023-10-08T09:54:18;102482.81;;;23.82
24714;BMP280;12820;51.580;5.010;2023-10-08T09:59:23;102484.97;;;23.92
24714;BMP280;12820;51.580;5.010;2023-10-08T10:04:26;102475.81;;;24.05
24714;BMP280;12820;51.580;5.010;2023-10-08T10:09:35;102488.09;;;24.18
24714;BMP280;12820;51.580;5.010;2023-10-08T10:14:42;102496.47;;;24.41
24714;BMP280;12820;51.580;5.010;2023-10-08T10:19:50;102499.34;;;24.71
24714;BMP280;12820;51.580;5.010;2023-10-08T10:24:52;102493.84;;;24.96
24714;BMP280;12820;51.580;5.010;2023-10-08T10:30:02;102503.59;;;25.08
24714;BMP280;12820;51.580;5.010;2023-10-08T10:35:14;102486.91;;;25.33
24714;BMP280;12820;51.580;5.010;2023-10-08T10:40:23;102481.56;;;25.37
24714;BMP280;12820;51.580;5.010;2023-10-08T10:45:32;102479.50;;;25.44
24714;BMP280;12820;51.580;5.010;2023-10-08T10:50:50;102481.09;;;25.46
24714;BMP280;12820;51.580;5.010;2023-10-08T10:56:08;102473.19;;;25.82
24714;BMP280;12820;51.580;5.010;2023-10-08T11:01:13;102480.09;;;26.76
24714;BMP280;12820;51.580;5.010;2023-10-08T11:06:38;102483.38;;;26.80
24714;BMP280;12820;51.580;5.010;2023-10-08T11:11:40;102480.00;;;27.23
24714;BMP280;12820;51.580;5.010;2023-10-08T11:16:47;102490.50;;;26.90
24714;BMP280;12820;51.580;5.010;2023-10-08T11:21:53;102490.69;;;26.87
24714;BMP280;12820;51.580;5.010;2023-10-08T11:26:56;102482.09;;;26.87
24714;BMP280;12820;51.580;5.010;2023-10-08T11:32:31;102476.94;;;26.87
24714;BMP280;12820;51.580;5.010;2023-10-08T11:37:34;102476.13;;;27.16
24714;BMP280;12820;51.580;5.010;2023-10-08T11:42:37;102466.69;;;27.30
24714;BMP280;12820;51.580;5.010;2023-10-08T11:47:39;102459.97;;;27.42
24714;BMP280;12820;51.580;5.010;2023-10-08T11:52:45;102437.34;;;27.31
24714;BMP280;12820;51.580;5.010;2023-10-08T11:57:48;102448.25;;;27.36
24714;BMP280;12820;51.580;5.010;2023-10-08T12:02:52;102440.81;;;27.45
24714;BMP280;12820;51.580;5.010;2023-10-08T12:07:57;102438.09;;;27.62
24714;BMP280;12820;51.580;5.010;2023-10-08T12:13:00;102424.53;;;27.72
24714;BMP280;12820;51.580;5.010;2023-10-08T12:18:05;102425.56;;;27.70
24714;BMP280;12820;51.580;5.010;2023-10-08T12:23:12;102427.50;;;27.51
24714;BMP280;12820;51.580;5.010;2023-10-08T12:28:22;102428.19;;;27.26
24714;BMP280;12820;51.580;5.010;2023-10-08T12:33:27;102417.94;;;27.25
24714;BMP280;12820;51.580;5.010;2023-10-08T12:38:32;102415.88;;;27.45
24714;BMP280;12820;51.580;5.010;2023-10-08T12:43:35;102416.66;;;27.60
24714;BMP280;12820;51.580;5.010;2023-10-08T12:48:41;102413.16;;;27.61
24714;BMP280;12820;51.580;5.010;2023-10-08T12:53:46;102399.91;;;27.81
24714;BMP280;12820;51.580;5.010;2023-10-08T12:59:02;102391.97;;;27.97
24714;BMP280;12820;51.580;5.010;2023-10-08T13:04:10;102387.50;;;27.99
24714;BMP280;12820;51.580;5.010;2023-10-08T13:09:18;102379.69;;;27.87
24714;BMP280;12820;51.580;5.010;2023-10-08T13:14:20;102373.41;;;27.91
24714;BMP280;12820;51.580;5.010;2023-10-08T13:19:25;102368.81;;;28.49
24714;BMP280;12820;51.580;5.010;2023-10-08T13:24:28;102350.97;;;29.95
24714;BMP280;12820;51.580;5.010;2023-10-08T13:29:31;102352.81;;;30.86
24714;BMP280;12820;51.580;5.010;2023-10-08T13:34:35;102350.09;;;31.86
24714;BMP280;12820;51.580;5.010;2023-10-08T13:39:38;102330.00;;;33.32
24714;BMP280;12820;51.580;5.010;2023-10-08T13:44:42;102324.34;;;34.24
24714;BMP280;12820;51.580;5.010;2023-10-08T13:49:47;102319.09;;;33.38
24714;BMP280;12820;51.580;5.010;2023-10-08T13:54:52;102316.88;;;32.11
24714;BMP280;12820;51.580;5.010;2023-10-08T13:59:55;102307.34;;;31.14
24714;BMP280;12820;51.580;5.010;2023-10-08T14:04:58;102309.22;;;30.45
24714;BMP280;12820;51.580;5.010;2023-10-08T14:10:01;102304.34;;;30.05
24714;BMP280;12820;51.580;5.010;2023-10-08T14:15:08;102296.59;;;30.28
24714;BMP280;12820;51.580;5.010;2023-10-08T14:20:16;102290.59;;;30.84
24714;BMP280;12820;51.580;5.010;2023-10-08T14:25:27;102296.66;;;31.50
24714;BMP280;12820;51.580;5.010;2023-10-08T14:30:31;102295.16;;;32.43
24714;BMP280;12820;51.580;5.010;2023-10-08T14:35:35;102287.03;;;33.07
24714;BMP280;12820;51.580;5.010;2023-10-08T14:40:56;102280.91;;;32.97
24714;BMP280;12820;51.580;5.010;2023-10-08T14:46:36;102270.19;;;32.91
24714;BMP280;12820;51.580;5.010;2023-10-08T14:51:40;102272.94;;;32.89
24714;BMP280;12820;51.580;5.010;2023-10-08T14:56:42;102265.13;;;32.79
24714;BMP280;12820;51.580;5.010;2023-10-08T15:01:45;102249.88;;;32.74
24714;BMP280;12820;51.580;5.010;2023-10-08T15:06:49;102251.44;;;32.77
24714;BMP280;12820;51.580;5.010;2023-10-08T15:11:52;102257.22;;;32.49
24714;BMP280;12820;51.580;5.010;2023-10-08T15:16:57;102251.94;;;31.99
24714;BMP280;12820;51.580;5.010;2023-10-08T15:21:59;102250.31;;;31.66
24714;BMP280;12820;51.580;5.010;2023-10-08T15:27:02;102260.41;;;31.38
24714;BMP280;12820;51.580;5.010;2023-10-08T15:32:07;102247.34;;;31.06
24714;BMP280;12820;51.580;5.010;2023-10-08T15:37:09;102244.97;;;30.69
24714;BMP280;12820;51.580;5.010;2023-10-08T15:42:11;102247.03;;;30.20
24714;BMP280;12820;51.580;5.010;2023-10-08T15:47:14;102249.53;;;29.75
24714;BMP280;12820;51.580;5.010;2023-10-08T15:52:16;102247.84;;;29.26
24714;BMP280;12820;51.580;5.010;2023-10-08T15:57:18;102242.81;;;28.75
24714;BMP280;12820;51.580;5.010;2023-10-08T16:02:21;102245.44;;;28.23
24714;BMP280;12820;51.580;5.010;2023-10-08T16:07:23;102239.91;;;27.76
24714;BMP280;12820;51.580;5.010;2023-10-08T16:12:26;102236.63;;;27.33
24714;BMP280;12820;51.580;5.010;2023-10-08T16:17:28;102231.41;;;26.92
24714;BMP280;12820;51.580;5.010;2023-10-08T16:22:33;102237.19;;;26.54
24714;BMP280;12820;51.580;5.010;2023-10-08T16:27:35;102242.81;;;26.16
24714;BMP280;12820;51.580;5.010;2023-10-08T16:32:37;102244.78;;;25.81
24714;BMP280;12820;51.580;5.010;2023-10-08T16:37:39;102241.38;;;25.50
24714;BMP280;12820;51.580;5.010;2023-10-08T16:42:42;102245.53;;;25.21
24714;BMP280;12820;51.580;5.010;2023-10-08T16:47:44;102248.66;;;24.94
24714;BMP280;12820;51.580;5.010;2023-10-08T16:52:47;102258.63;;;24.67
24714;BMP280;12820;51.580;5.010;2023-10-08T16:57:50;102247.94;;;24.41
24714;BMP280;12820;51.580;5.010;2023-10-08T17:02:52;102241.44;;;24.17
24714;BMP280;12820;51.580;5.010;2023-10-08T17:07:57;102246.06;;;23.92
24714;BMP280;12820;51.580;5.010;2023-10-08T17:12:59;102235.19;;;23.68
24714;BMP280;12820;51.580;5.010;2023-10-08T17:18:02;102237.09;;;23.47
24714;BMP280;12820;51.580;5.010;2023-10-08T17:23:04;102242.31;;;23.26
24714;BMP280;12820;51.580;5.010;2023-10-08T17:28:09;102250.81;;;23.07
24714;BMP280;12820;51.580;5.010;2023-10-08T17:33:11;102253.28;;;22.90
24714;BMP280;12820;51.580;5.010;2023-10-08T17:38:14;102249.03;;;22.70
24714;BMP280;12820;51.580;5.010;2023-10-08T17:43:16;102247.09;;;22.55
24714;BMP280;12820;51.580;5.010;2023-10-08T17:48:18;102239.22;;;22.39
24714;BMP280;12820;51.580;5.010;2023-10-08T17:53:24;102236.34;;;22.25
24714;BMP280;12820;51.580;5.010;2023-10-08T17:58:27;102233.50;;;22.11
24714;BMP280;12820;51.580;5.010;2023-10-08T18:03:29;102224.63;;;21.99
24714;BMP280;12820;51.580;5.010;2023-10-08T18:08:32;102216.53;;;21.88
24714;BMP280;12820;51.580;5.010;2023-10-08T18:13:38;102200.78;;;21.76
24714;BMP280;12820;51.580;5.010;2023-10-08T18:18:44;102190.09;;;21.65
24714;BMP280;12820;51.580;5.010;2023-10-08T18:23:47;102187.97;;;21.53
24714;BMP280;12820;51.580;5.010;2023-10-08T18:28:51;102179.06;;;21.42
24714;BMP280;12820;51.580;5.010;2023-10-08T18:33:56;102190.56;;;21.31
24714;BMP280;12820;51.580;5.010;2023-10-08T18:38:58;102176.44;;;21.21
24714;BMP280;12820;51.580;5.010;2023-10-08T18:44:02;102177.66;;;21.12
24714;BMP280;12820;51.580;5.010;2023-10-08T18:49:06;102172.00;;;21.02
24714;BMP280;12820;51.580;5.010;2023-10-08T18:54:09;102169.72;;;20.95
24714;BMP280;12820;51.580;5.010;2023-10-08T18:59:14;102167.41;;;20.88
24714;BMP280;12820;51.580;5.010;2023-10-08T19:04:17;102164.31;;;20.80
24714;BMP280;12820;51.580;5.010;2023-10-08T19:09:20;102153.56;;;20.71
24714;BMP280;12820;51.580;5.010;2023-10-08T19:14:29;102159.03;;;20.61
24714;BMP280;12820;51.580;5.010;2023-10-08T19:19:31;102161.06;;;20.51
24714;BMP280;12820;51.580;5.010;2023-10-08T19:24:35;102162.22;;;20.43
24714;BMP280;12820;51.580;5.010;2023-10-08T19:29:37;102151.41;;;20.35
24714;BMP280;12820;51.580;5.010;2023-10-08T19:34:40;102142.31;;;20.26
24714;BMP280;12820;51.580;5.010;2023-10-08T19:39:43;102130.72;;;20.17
24714;BMP280;12820;51.580;5.010;2023-10-08T19:44:45;102128.41;;;20.10
24714;BMP280;12820;51.580;5.010;2023-10-08T19:49:48;102144.81;;;20.03
24714;BMP280;12820;51.580;5.010;2023-10-08T19:54:50;102139.88;;;19.97
24714;BMP280;12820;51.580;5.010;2023-10-08T19:59:53;102137.59;;;19.90
24714;BMP280;12820;51.580;5.010;2023-10-08T20:04:55;102129.28;;;19.84
24714;BMP280;12820;51.580;5.010;2023-10-08T20:09:57;102123.59;;;19.76
24714;BMP280;12820;51.580;5.010;2023-10-08T20:14:59;102131.41;;;19.70
24714;BMP280;12820;51.580;5.010;2023-10-08T20:20:02;102124.88;;;19.62
24714;BMP280;12820;51.580;5.010;2023-10-08T20:25:15;102137.84;;;19.55
24714;BMP280;12820;51.580;5.010;2023-10-08T20:30:19;102133.75;;;19.49
24714;BMP280;12820;51.580;5.010;2023-10-08T20:35:22;102125.47;;;19.41
24714;BMP280;12820;51.580;5.010;2023-10-08T20:40:33;102126.50;;;19.36
24714;BMP280;12820;51.580;5.010;2023-10-08T20:45:37;102126.69;;;19.30
24714;BMP280;12820;51.580;5.010;2023-10-08T20:50:41;102126.88;;;19.24
24714;BMP280;12820;51.580;5.010;2023-10-08T20:55:44;102128.66;;;19.21
24714;BMP280;12820;51.580;5.010;2023-10-08T21:00:48;102116.88;;;19.17
24714;BMP280;12820;51.580;5.010;2023-10-08T21:05:54;102109.44;;;19.11
24714;BMP280;12820;51.580;5.010;2023-10-08T21:10:57;102123.06;;;19.09
24714;BMP280;12820;51.580;5.010;2023-10-08T21:16:02;102112.28;;;19.01
24714;BMP280;12820;51.580;5.010;2023-10-08T21:21:05;102097.97;;;18.96
24714;BMP280;12820;51.580;5.010;2023-10-08T21:26:08;102104.97;;;18.89
24714;BMP280;12820;51.580;5.010;2023-10-08T21:31:10;102109.38;;;18.83
24714;BMP280;12820;51.580;5.010;2023-10-08T21:36:13;102109.50;;;18.79
24714;BMP280;12820;51.580;5.010;2023-10-08T21:41:16;102111.34;;;18.74
24714;BMP280;12820;51.580;5.010;2023-10-08T21:46:18;102097.88;;;18.69
24714;BMP280;12820;51.580;5.010;2023-10-08T21:51:21;102116.66;;;18.65
24714;BMP280;12820;51.580;5.010;2023-10-08T21:56:26;102114.22;;;18.61
24714;BMP280;12820;51.580;5.010;2023-10-08T22:01:36;102107.53;;;18.57
24714;BMP280;12820;51.580;5.010;2023-10-08T22:06:38;102104.25;;;18.53
24714;BMP280;12820;51.580;5.010;2023-10-08T22:11:40;102103.53;;;18.49
24714;BMP280;12820;51.580;5.010;2023-10-08T22:16:44;102096.06;;;18.43
24714;BMP280;12820;51.580;5.010;2023-10-08T22:21:48;102095.34;;;18.38
24714;BMP280;12820;51.580;5.010;2023-10-08T22:26:52;102085.25;;;18.35
24714;BMP280;12820;51.580;5.010;2023-10-08T22:31:57;102072.66;;;18.29
24714;BMP280;12820;51.580;5.010;2023-10-08T22:37:01;102062.53;;;18.26
24714;BMP280;12820;51.580;5.010;2023-10-08T22:42:09;102070.28;;;18.23
24714;BMP280;12820;51.580;5.010;2023-10-08T22:47:11;102068.69;;;18.19
24714;BMP280;12820;51.580;5.010;2023-10-08T22:52:13;102067.94;;;18.16
24714;BMP280;12820;51.580;5.010;2023-10-08T22:57:17;102054.44;;;18.13
24714;BMP280;12820;51.580;5.010;2023-10-08T23:02:25;102046.88;;;18.10
24714;BMP280;12820;51.580;5.010;2023-10-08T23:07:29;102038.53;;;18.05
24714;BMP280;12820;51.580;5.010;2023-10-08T23:12:31;102041.19;;;18.00
24714;BMP280;12820;51.580;5.010;2023-10-08T23:17:34;102037.94;;;17.96
24714;BMP280;12820;51.580;5.010;2023-10-08T23:22:38;102042.25;;;17.92
24714;BMP280;12820;51.580;5.010;2023-10-08T23:27:41;102041.47;;;17.89
24714;BMP280;12820;51.580;5.010;2023-10-08T23:32:44;102039.03;;;17.86
24714;BMP280;12820;51.580;5.010;2023-10-08T23:37:47;102040.75;;;17.84
24714;BMP280;12820;51.580;5.010;2023-10-08T23:43:06;102029.03;;;17.78
24714;BMP280;12820;51.580;5.010;2023-10-08T23:48:11;102022.31;;;17.75
24714;BMP280;12820;51.580;5.010;2023-10-08T23:53:23;102036.78;;;17.73
24714;BMP280;12820;51.580;5.010;2023-10-08T23:58:34;102005.50;;;17.69
